Terminal Aerodrome Forecast
Issued by NWS Albany, NY

Home | Current Version | Previous Version | Text Only | Print | Product List | Glossary On
Versions: 1 2 3 4 5 6 7 8 9 10 11 12 13 14 15
268
FTUS41 KALY 221742
TAFPOU
TAF
KPOU 221742Z 2218/2318 00000KT 6SM BR OVC015
     FM222100 00000KT 5SM -RA BR SCT009 OVC015
      TEMPO 2221/2301 2SM -RA BR OVC009
     FM230100 00000KT 1SM BR VCSH OVC006
     FM230600 VRB05KT 3SM BR SCT006 OVC010
     FM231500 18006KT 3SM -RA BR SCT006 OVC010=

USA.gov is the U.S. government's official web portal to all federal, state and local government web resources and services.